»·PEaware :: AAL630 KPHX-KDEN

AAL630 :: KPHX-KDEN

FLIGHT INFORMATION

Flight Status: Arrived
Operator:
American Airlines
More flights by this operator :: More flights under this callsign
Pilot: Jordan S. (14404)
Aircraft: AIRBUS A320
(A320)
More flights by this aircraft type
Origin: KPHX Phoenix Sky Harbor Intl
United States
Destination: KDEN Denver Intl
United States
More flights between these airports :: More routes between these airports
Route: ZIDOG1 ZIDOG MRBIL YOTES YOOPR OURAY PEEKK3
File this flight plan on PilotEdge
Remarks:
Altitude:
(Current/Filed)
35,000ft
Speed:
(Current/Filed)
600kts
Departed: 25-Apr-18 09:22 PM
Arrived: 25-Apr-18 10:54 PM
Distance/Time
Traveled:
523nm/1:31
Distance/Time
To Go:
Arrived

Flight Plot

Page will automatically refresh every two minutes.

Flight plan parsing failed; only flown route is shown


Map Options




Map Legend


Flown Route
Filed Route
Departure Airport
Arrival Airport
Navaid (VOR, NDB)
Fix

Horizontal Profiles

Position Reports

Time Latitude Longitude Heading Altitude Ground
Speed
25-Apr-18 20:52 33.437118 -111.996303 269 1143ft 0kts
25-Apr-18 20:53 33.437118 -111.996303 269 1143ft 0kts
25-Apr-18 20:54 33.437118 -111.996303 269 1143ft 0kts
25-Apr-18 20:55 33.437118 -111.996303 269 1143ft 0kts
25-Apr-18 20:56 33.437118 -111.996303 269 1143ft 0kts
25-Apr-18 20:57 33.437118 -111.996303 269 1143ft 0kts
25-Apr-18 20:58 33.437118 -111.996303 269 1143ft 0kts
25-Apr-18 20:59 33.437118 -111.996303 269 1143ft 0kts
25-Apr-18 21:00 33.437118 -111.996303 269 1143ft 0kts
25-Apr-18 21:01 33.437118 -111.996303 269 1143ft 0kts
25-Apr-18 21:02 33.437118 -111.996303 269 1143ft 0kts
25-Apr-18 21:03 33.437118 -111.996303 269 1143ft 0kts
25-Apr-18 21:04 33.437118 -111.996303 269 1143ft 0kts
25-Apr-18 21:05 33.437118 -111.996303 269 1143ft 0kts
25-Apr-18 21:06 33.437118 -111.996303 269 1143ft 0kts
25-Apr-18 21:07 33.437118 -111.996303 269 1143ft 0kts
25-Apr-18 21:08 33.437118 -111.996304 269 1143ft 0kts
25-Apr-18 21:09 33.437120 -111.996228 268 1143ft 4kts
25-Apr-18 21:10 33.437126 -111.995858 269 1143ft 0kts
25-Apr-18 21:11 33.437126 -111.995880 269 1143ft 0kts
25-Apr-18 21:12 33.437126 -111.995880 269 1143ft 0kts
25-Apr-18 21:13 33.437123 -111.996078 269 1143ft 0kts
25-Apr-18 21:14 33.437123 -111.996116 269 1143ft 0kts
25-Apr-18 21:15 33.437372 -111.996361 13 1143ft 9kts
25-Apr-18 21:16 33.437938 -111.995826 32 1143ft 0kts
25-Apr-18 21:17 33.437938 -111.995826 32 1143ft 0kts
25-Apr-18 21:18 33.437938 -111.995826 32 1143ft 0kts
25-Apr-18 21:19 33.439487 -111.995410 30 1143ft 16kts
25-Apr-18 21:20 33.439755 -111.993015 91 1143ft 0kts
25-Apr-18 21:21 33.440801 -111.999765 269 1143ft 121kts
25-Apr-18 21:22 33.440666 -112.021464 269 1144ft 173kts
25-Apr-18 21:26 33.437118 -111.996303 269 1143ft 0kts
25-Apr-18 21:27 33.437118 -111.996303 269 1143ft 0kts
25-Apr-18 21:28 33.437118 -111.996303 269 1143ft 0kts
25-Apr-18 21:29 33.437118 -111.996303 269 1143ft 0kts
25-Apr-18 21:30 33.437118 -111.996304 269 1143ft 0kts
25-Apr-18 21:31 33.438616 -111.995774 19 1143ft 15kts
25-Apr-18 21:32 33.440853 -111.999492 269 1143ft 126kts
25-Apr-18 21:33 33.441017 -112.065675 270 3569ft 220kts
25-Apr-18 21:34 33.441957 -112.146602 270 7065ft 257kts
25-Apr-18 21:35 33.482139 -112.202360 5 10620ft 273kts
25-Apr-18 21:36 33.559857 -112.197655 0 13794ft 303kts
25-Apr-18 21:37 33.633669 -112.135103 50 15171ft 372kts
25-Apr-18 21:38 33.701560 -112.037259 50 17508ft 390kts
25-Apr-18 21:39 33.771799 -111.935738 50 19722ft 403kts
25-Apr-18 21:40 33.844073 -111.830886 50 21700ft 415kts
25-Apr-18 21:41 33.918430 -111.722679 50 23490ft 425kts
25-Apr-18 21:42 33.995038 -111.612399 44 25103ft 436kts
25-Apr-18 21:43 34.098194 -111.534123 29 26559ft 445kts
25-Apr-18 21:44 34.206316 -111.459499 29 27897ft 454kts
25-Apr-18 21:45 34.316472 -111.383174 29 29107ft 462kts
25-Apr-18 21:46 34.428051 -111.305633 30 30480ft 462kts
25-Apr-18 21:47 34.538740 -111.228476 30 31953ft 459kts
25-Apr-18 21:48 34.648676 -111.151594 30 33300ft 456kts
25-Apr-18 21:49 34.758182 -111.074776 30 34534ft 454kts
25-Apr-18 21:50 34.866838 -110.998321 30 35199ft 450kts
25-Apr-18 21:51 34.974839 -110.922087 30 34875ft 452kts
25-Apr-18 21:52 35.083502 -110.845150 30 35403ft 452kts
25-Apr-18 21:53 35.191788 -110.768248 30 35082ft 455kts
25-Apr-18 21:54 35.300289 -110.690958 30 35078ft 452kts
25-Apr-18 21:55 35.408535 -110.613604 30 35077ft 452kts
25-Apr-18 21:56 35.516946 -110.535881 30 35077ft 452kts
25-Apr-18 21:57 35.624898 -110.458244 30 35078ft 452kts
25-Apr-18 21:58 35.715635 -110.352382 48 35088ft 453kts
25-Apr-18 21:59 35.795090 -110.240118 49 35080ft 452kts
25-Apr-18 22:00 35.877114 -110.123846 49 35071ft 452kts
25-Apr-18 22:01 35.959153 -110.007136 49 35072ft 452kts
25-Apr-18 22:02 36.041292 -109.889877 49 35076ft 452kts
25-Apr-18 22:03 36.123158 -109.772601 49 35078ft 452kts
25-Apr-18 22:04 36.204767 -109.655289 49 35077ft 452kts
25-Apr-18 22:05 36.286317 -109.537654 49 35077ft 452kts
25-Apr-18 22:06 36.368026 -109.419384 49 35078ft 452kts
25-Apr-18 22:07 36.449355 -109.301293 49 35080ft 452kts
25-Apr-18 22:08 36.530868 -109.182325 49 35080ft 452kts
25-Apr-18 22:09 36.611965 -109.063535 49 35079ft 452kts
25-Apr-18 22:10 36.693149 -108.944397 49 35079ft 452kts
25-Apr-18 22:11 36.774234 -108.824940 49 35079ft 452kts
25-Apr-18 22:12 36.855163 -108.705268 49 35079ft 452kts
25-Apr-18 22:13 36.936174 -108.585046 49 35077ft 452kts
25-Apr-18 22:14 37.016889 -108.464823 49 35076ft 452kts
25-Apr-18 22:15 37.096319 -108.346075 50 35076ft 452kts
25-Apr-18 22:16 37.173071 -108.230924 50 35076ft 452kts
25-Apr-18 22:17 37.253239 -108.110219 50 35077ft 452kts
25-Apr-18 22:18 37.333601 -107.988775 50 35076ft 452kts
25-Apr-18 22:19 37.413575 -107.867473 50 35077ft 452kts
25-Apr-18 22:20 37.493358 -107.746017 50 35078ft 452kts
25-Apr-18 22:21 37.573319 -107.623837 50 35077ft 452kts
25-Apr-18 22:22 37.652889 -107.501802 50 35077ft 452kts
25-Apr-18 22:23 37.732381 -107.379429 50 35076ft 452kts
25-Apr-18 22:25 37.826912 -107.233306 50 35075ft 452kts
25-Apr-18 22:25 38.076108 -106.844914 50 35085ft 452kts
25-Apr-18 22:26 38.154797 -106.721323 50 35076ft 452kts
25-Apr-18 22:27 38.233958 -106.597541 47 35066ft 452kts
25-Apr-18 22:28 38.322994 -106.485769 43 34174ft 452kts
25-Apr-18 22:29 38.413010 -106.374086 43 33221ft 454kts
25-Apr-18 22:30 38.503036 -106.261994 44 32271ft 456kts
25-Apr-18 22:31 38.593694 -106.148656 44 31312ft 458kts
25-Apr-18 22:32 38.684557 -106.034645 44 30353ft 460kts
25-Apr-18 22:33 38.775933 -105.919564 44 29389ft 462kts
25-Apr-18 22:34 38.867307 -105.803997 44 28428ft 464kts
25-Apr-18 22:36 38.973963 -105.668238 44 27135ft 460kts
25-Apr-18 22:36 39.049013 -105.572371 44 24569ft 458kts
25-Apr-18 22:37 39.135596 -105.461427 44 23082ft 417kts
25-Apr-18 22:38 39.212681 -105.362704 44 22324ft 368kts
25-Apr-18 22:39 39.284003 -105.279124 37 21306ft 336kts
25-Apr-18 22:40 39.357024 -105.207165 37 19688ft 327kts
25-Apr-18 22:41 39.428382 -105.137422 36 18090ft 318kts
25-Apr-18 22:42 39.495439 -105.072449 37 16811ft 312kts
25-Apr-18 22:43 39.563843 -105.005104 37 15818ft 309kts
25-Apr-18 22:44 39.631801 -104.938081 37 14835ft 305kts
25-Apr-18 22:45 39.698761 -104.871883 37 13867ft 302kts
25-Apr-18 22:46 39.774869 -104.840594 0 12612ft 294kts
25-Apr-18 22:47 39.854512 -104.839832 0 11526ft 274kts
25-Apr-18 22:48 39.925329 -104.838895 1 11115ft 232kts
25-Apr-18 22:49 39.974419 -104.797052 70 10060ft 200kts
25-Apr-18 22:50 39.974162 -104.726375 101 8020ft 206kts
25-Apr-18 22:52 39.921067 -104.686269 181 5945ft 153kts
25-Apr-18 22:53 39.885086 -104.686905 169 5443ft 11kts
25-Apr-18 22:54 39.886148 -104.685107 101 5443ft 9kts

Navigation Log

Ident Type
Flight plan parsing failed, navigation log unavailable